createdAt,value
2018-10-03T00:02:13.200Z,4.47
2018-10-03T00:04:40.381Z,4.47
2018-10-03T00:07:07.576Z,4.50
2018-10-03T00:09:34.736Z,3.83
2018-10-03T00:12:02.076Z,4.27
2018-10-03T00:14:29.254Z,3.93
2018-10-03T00:16:56.445Z,3.60
2018-10-03T00:19:23.650Z,4.37
2018-10-03T00:21:50.828Z,3.53
2018-10-03T00:24:18.009Z,4.17
2018-10-03T00:26:45.216Z,3.10
2018-10-03T00:29:12.422Z,3.77
2018-10-03T00:31:39.600Z,3.73
2018-10-03T00:34:07.168Z,4.07
2018-10-03T00:36:34.331Z,3.87
2018-10-03T00:39:01.512Z,3.70
2018-10-03T00:41:28.712Z,3.30
2018-10-03T00:43:55.888Z,3.07
2018-10-03T00:46:23.076Z,3.30
2018-10-03T00:48:50.263Z,3.33
2018-10-03T00:51:17.434Z,3.27
2018-10-03T00:53:44.581Z,3.50
2018-10-03T00:56:11.771Z,3.50
2018-10-03T00:58:38.948Z,3.33
2018-10-03T01:01:06.280Z,3.10
2018-10-03T01:03:33.455Z,3.40
2018-10-03T01:06:01.117Z,3.00
2018-10-03T01:08:28.277Z,3.20
2018-10-03T01:10:55.437Z,3.17
2018-10-03T01:13:22.671Z,3.40
2018-10-03T01:15:49.832Z,3.33
2018-10-03T01:18:17.050Z,3.83
2018-10-03T01:20:44.227Z,3.67
2018-10-03T01:23:11.393Z,3.90
2018-10-03T01:25:38.576Z,3.87
2018-10-03T01:28:05.755Z,3.70
2018-10-03T01:30:32.902Z,3.87
2018-10-03T01:33:00.124Z,3.77
2018-10-03T01:35:27.264Z,4.33
2018-10-03T01:37:54.392Z,3.10
2018-10-03T01:40:21.557Z,3.83
2018-10-03T01:42:48.729Z,3.73
2018-10-03T01:45:15.906Z,3.70
2018-10-03T01:47:43.052Z,4.10
2018-10-03T01:50:10.199Z,4.23
2018-10-03T01:52:37.340Z,4.40
2018-10-03T01:55:04.508Z,3.93
2018-10-03T01:57:31.638Z,4.60
2018-10-03T01:59:58.828Z,4.67
2018-10-03T02:02:25.976Z,5.33
2018-10-03T02:04:53.124Z,4.50
2018-10-03T02:07:20.277Z,5.10
2018-10-03T02:09:47.426Z,5.00
2018-10-03T02:12:14.562Z,5.33
2018-10-03T02:14:41.783Z,5.10
2018-10-03T02:17:08.889Z,5.33
2018-10-03T02:19:36.084Z,4.57
2018-10-03T02:22:03.212Z,4.37
2018-10-03T02:24:30.359Z,5.60
2018-10-03T02:26:57.538Z,5.20
2018-10-03T02:29:24.723Z,5.17
2018-10-03T02:31:51.901Z,4.83
2018-10-03T02:34:19.044Z,4.80
2018-10-03T02:36:46.197Z,4.90
2018-10-03T02:39:13.376Z,4.60
2018-10-03T02:41:40.560Z,4.43
2018-10-03T02:44:07.712Z,4.37
2018-10-03T02:46:35.104Z,4.73
2018-10-03T02:49:02.480Z,4.87
2018-10-03T02:51:29.628Z,4.40
2018-10-03T02:53:56.865Z,4.23
2018-10-03T02:56:24.020Z,4.70
2018-10-03T02:58:51.181Z,4.40
2018-10-03T03:01:18.295Z,4.93
2018-10-03T03:03:45.428Z,4.07
2018-10-03T03:06:12.552Z,4.50
2018-10-03T03:08:39.769Z,3.80
2018-10-03T03:11:06.975Z,4.87
2018-10-03T03:13:34.116Z,4.00
2018-10-03T03:16:01.256Z,4.10
2018-10-03T03:18:28.418Z,4.60
2018-10-03T03:20:55.568Z,4.73
2018-10-03T03:23:22.692Z,4.47
2018-10-03T03:25:49.857Z,4.70
2018-10-03T03:28:17.015Z,4.37
2018-10-03T03:30:44.157Z,4.13
2018-10-03T03:33:11.290Z,4.73
2018-10-03T03:35:38.521Z,4.43
2018-10-03T03:38:05.680Z,4.17
2018-10-03T03:40:32.827Z,4.00
2018-10-03T03:43:00.034Z,4.20
2018-10-03T03:45:27.193Z,4.30
2018-10-03T03:47:54.336Z,4.63
2018-10-03T03:50:21.460Z,4.07
2018-10-03T03:52:48.588Z,4.30
2018-10-03T03:55:15.744Z,4.47
2018-10-03T03:57:42.866Z,3.97
2018-10-03T04:00:10.066Z,4.17
2018-10-03T04:02:37.230Z,4.10
2018-10-03T04:05:04.384Z,4.47
2018-10-03T04:07:31.554Z,4.07
2018-10-03T04:09:58.715Z,4.23
2018-10-03T04:12:25.850Z,4.17
2018-10-03T04:14:52.992Z,4.43
2018-10-03T04:17:20.125Z,5.20
2018-10-03T04:19:47.269Z,4.40
2018-10-03T04:22:14.385Z,4.40
2018-10-03T04:24:41.581Z,4.43
2018-10-03T04:27:08.702Z,4.67
2018-10-03T04:29:35.844Z,5.00
2018-10-03T04:32:03.021Z,4.70
2018-10-03T04:34:30.212Z,4.53
2018-10-03T04:36:57.336Z,4.23
2018-10-03T04:39:24.526Z,4.63
2018-10-03T04:41:51.753Z,4.53
2018-10-03T04:44:18.935Z,5.27
2018-10-03T04:46:46.112Z,4.73
2018-10-03T04:49:13.222Z,5.07
2018-10-03T04:51:40.352Z,4.43
2018-10-03T04:54:07.473Z,5.10
2018-10-03T04:56:34.672Z,5.27
2018-10-03T04:59:01.894Z,4.83
2018-10-03T05:01:29.042Z,5.00
2018-10-03T05:03:56.187Z,4.83
2018-10-03T05:06:23.296Z,4.73
2018-10-03T05:08:50.438Z,4.80
2018-10-03T05:11:17.608Z,5.37
2018-10-03T05:13:44.716Z,5.10
2018-10-03T05:16:12.671Z,5.07
2018-10-03T05:18:39.830Z,5.13
2018-10-03T05:21:07.065Z,4.97
2018-10-03T05:23:34.248Z,5.37
2018-10-03T05:26:01.497Z,5.37
2018-10-03T05:28:28.657Z,5.10
2018-10-03T05:30:55.812Z,5.33
2018-10-03T05:33:22.981Z,5.43
2018-10-03T05:35:50.077Z,5.17
2018-10-03T05:38:17.174Z,4.93
2018-10-03T05:40:44.341Z,5.07
2018-10-03T05:43:11.461Z,4.90
2018-10-03T05:45:38.616Z,5.10
2018-10-03T05:48:05.801Z,4.40
2018-10-03T05:50:32.944Z,4.80
2018-10-03T05:53:00.117Z,4.30
2018-10-03T05:55:27.280Z,5.03
2018-10-03T05:57:54.437Z,4.70
2018-10-03T06:00:21.611Z,4.40
2018-10-03T06:02:48.802Z,4.67
2018-10-03T06:05:15.933Z,4.33
2018-10-03T06:07:43.096Z,4.40
2018-10-03T06:10:10.269Z,4.30
2018-10-03T06:12:37.445Z,4.57
2018-10-03T06:15:04.776Z,4.07
2018-10-03T06:17:31.936Z,4.33
2018-10-03T06:19:59.122Z,4.60
2018-10-03T06:22:26.589Z,4.13
2018-10-03T06:24:53.753Z,4.37
2018-10-03T06:27:20.907Z,3.87
2018-10-03T06:29:48.084Z,4.03
2018-10-03T06:32:15.505Z,3.60
2018-10-03T06:34:42.724Z,3.63
2018-10-03T06:37:09.909Z,3.93
2018-10-03T06:39:37.037Z,4.33
2018-10-03T06:42:04.188Z,4.00
2018-10-03T06:44:31.310Z,3.43
2018-10-03T06:46:58.460Z,4.00
2018-10-03T06:49:25.608Z,3.93
2018-10-03T06:51:52.733Z,4.10
2018-10-03T06:54:19.885Z,4.83
2018-10-03T06:56:47.069Z,5.07
2018-10-03T06:59:14.308Z,4.03
2018-10-03T07:01:41.480Z,4.83
2018-10-03T07:04:08.592Z,4.30
2018-10-03T07:06:35.761Z,4.30
2018-10-03T07:09:03.341Z,5.03
2018-10-03T07:11:30.486Z,5.50
2018-10-03T07:13:57.641Z,4.70
2018-10-03T07:16:24.768Z,6.10
2018-10-03T07:18:51.916Z,5.43
2018-10-03T07:21:19.063Z,5.50
2018-10-03T07:23:46.277Z,5.40
2018-10-03T07:26:13.549Z,5.10
2018-10-03T07:28:40.702Z,4.93
2018-10-03T07:31:07.968Z,5.17
2018-10-03T07:33:35.161Z,5.87
2018-10-03T07:36:02.344Z,5.23
2018-10-03T07:38:29.502Z,6.20
2018-10-03T07:40:56.975Z,4.80
2018-10-03T07:43:24.367Z,5.17
2018-10-03T07:45:51.533Z,4.40
2018-10-03T07:48:18.672Z,4.90
2018-10-03T07:50:45.841Z,4.80
2018-10-03T07:53:13.002Z,5.40
2018-10-03T07:55:40.171Z,4.80
2018-10-03T07:58:07.296Z,4.83
2018-10-03T08:00:34.453Z,4.17
2018-10-03T08:03:01.638Z,3.87
2018-10-03T08:05:29.215Z,4.60
2018-10-03T08:07:56.873Z,4.40
2018-10-03T08:10:24.028Z,4.67
2018-10-03T08:12:51.169Z,3.67
2018-10-03T08:15:18.361Z,4.03
2018-10-03T08:17:45.609Z,3.77
2018-10-03T08:20:13.373Z,4.20
2018-10-03T08:22:40.660Z,4.17
2018-10-03T08:25:07.808Z,3.60
2018-10-03T08:27:34.965Z,3.50
2018-10-03T08:30:02.208Z,3.83
2018-10-03T08:32:29.425Z,3.77
2018-10-03T08:34:56.576Z,4.37
2018-10-03T08:37:24.120Z,3.47
2018-10-03T08:39:51.324Z,3.87
2018-10-03T08:42:18.587Z,3.50
2018-10-03T08:44:45.765Z,4.17
2018-10-03T08:47:12.903Z,3.50
2018-10-03T08:49:40.052Z,3.73
2018-10-03T08:52:07.177Z,3.60
2018-10-03T08:54:34.340Z,3.63
2018-10-03T08:57:01.479Z,3.83
2018-10-03T08:59:28.637Z,3.10
2018-10-03T09:01:55.768Z,3.93
2018-10-03T09:04:22.972Z,3.40
2018-10-03T09:06:50.133Z,3.67
2018-10-03T09:09:17.319Z,2.90
2018-10-03T09:11:44.566Z,3.37
2018-10-03T09:14:11.715Z,3.13
2018-10-03T09:16:38.852Z,2.90
2018-10-03T09:19:06.041Z,3.33
2018-10-03T09:21:33.277Z,2.95
2018-10-03T09:24:00.413Z,2.93
2018-10-03T09:26:27.568Z,3.00
2018-10-03T09:28:54.721Z,3.55
2018-10-03T09:31:21.912Z,3.10
2018-10-03T09:33:49.120Z,3.15
2018-10-03T09:36:16.437Z,2.90
2018-10-03T09:38:43.639Z,3.00
2018-10-03T09:41:10.788Z,2.67
2018-10-03T09:43:37.955Z,2.77
2018-10-03T09:46:05.127Z,3.02
2018-10-03T09:48:32.265Z,3.92
2018-10-03T09:50:59.403Z,3.10
2018-10-03T09:53:26.533Z,3.02
2018-10-03T09:55:53.777Z,2.85
2018-10-03T09:58:20.904Z,2.70
2018-10-03T10:00:53.833Z,2.80
2018-10-03T10:03:20.923Z,3.00
2018-10-03T10:05:48.100Z,3.12
2018-10-03T10:08:15.451Z,2.80
2018-10-03T10:10:42.981Z,2.95
2018-10-03T10:13:10.273Z,2.70
2018-10-03T10:15:37.400Z,2.30
2018-10-03T10:18:04.730Z,2.95
2018-10-03T10:20:31.981Z,2.70
2018-10-03T10:22:59.064Z,2.40
2018-10-03T10:25:26.235Z,2.40
2018-10-03T10:27:53.475Z,2.60
2018-10-03T10:30:20.641Z,2.67
2018-10-03T10:32:47.897Z,1.90
2018-10-03T10:35:14.949Z,2.40
2018-10-03T10:37:42.128Z,2.80
2018-10-03T10:40:09.527Z,2.83
2018-10-03T10:42:36.685Z,5.20
2018-10-03T10:45:03.948Z,3.00
2018-10-03T10:47:31.120Z,2.67
2018-10-03T10:49:58.304Z,3.55
2018-10-03T10:52:25.421Z,2.75
2018-10-03T10:54:52.616Z,2.60
2018-10-03T10:57:19.743Z,2.70
2018-10-03T10:59:46.957Z,2.27
2018-10-03T11:02:14.097Z,2.70
2018-10-03T11:04:41.282Z,2.70
2018-10-03T11:07:08.468Z,2.40
2018-10-03T11:09:35.809Z,2.90
2018-10-03T11:12:02.993Z,3.17
2018-10-03T11:14:30.171Z,2.47
2018-10-03T11:16:57.350Z,2.87
2018-10-03T11:19:24.433Z,2.90
2018-10-03T11:21:51.548Z,2.67
2018-10-03T11:24:18.958Z,2.55
2018-10-03T11:26:45.980Z,2.15
2018-10-03T11:29:13.119Z,2.50
2018-10-03T11:31:40.297Z,2.72
2018-10-03T11:34:07.474Z,2.15
2018-10-03T11:36:34.640Z,2.42
2018-10-03T11:39:01.786Z,2.58
2018-10-03T11:41:28.970Z,2.10
2018-10-03T11:43:56.160Z,2.72
2018-10-03T11:46:23.295Z,2.08
2018-10-03T11:48:50.455Z,2.37
2018-10-03T11:51:17.614Z,1.80
2018-10-03T11:53:44.812Z,2.58
2018-10-03T11:56:12.005Z,2.30
2018-10-03T11:58:39.140Z,2.20
2018-10-03T12:01:06.320Z,2.33
2018-10-03T12:03:40.242Z,1.90
2018-10-03T12:06:07.409Z,2.33
2018-10-03T12:08:34.811Z,2.40
2018-10-03T12:11:01.985Z,2.33
2018-10-03T12:13:29.138Z,2.10
2018-10-03T12:15:56.297Z,2.30
2018-10-03T12:18:23.434Z,2.37
2018-10-03T12:20:50.553Z,2.40
2018-10-03T12:23:17.732Z,3.17
2018-10-03T12:25:44.892Z,2.50
2018-10-03T12:28:12.053Z,2.22
2018-10-03T12:30:39.202Z,4.00
2018-10-03T12:33:06.372Z,2.58
2018-10-03T12:35:34.521Z,3.83
2018-10-03T12:38:02.133Z,3.30
2018-10-03T12:40:29.885Z,3.22
2018-10-03T12:42:57.054Z,2.65
2018-10-03T12:45:24.506Z,3.33
2018-10-03T12:50:26.119Z,2.92
2018-10-03T12:52:53.384Z,2.12
2018-10-03T12:55:20.681Z,2.67
2018-10-03T12:57:47.830Z,2.50
2018-10-03T13:00:15.134Z,2.95
2018-10-03T13:02:42.284Z,2.50
2018-10-03T13:05:09.477Z,1.80
2018-10-03T13:07:36.706Z,2.40
2018-10-03T13:10:04.124Z,1.98
2018-10-03T13:12:31.240Z,2.27
2018-10-03T13:14:58.364Z,2.15
2018-10-03T13:17:25.511Z,2.45
2018-10-03T13:19:52.677Z,2.62
2018-10-03T13:22:19.824Z,2.35
2018-10-03T13:24:47.020Z,2.42
2018-10-03T13:27:14.963Z,2.40
2018-10-03T13:29:42.160Z,2.37
2018-10-03T13:32:09.330Z,2.00
2018-10-03T13:34:36.492Z,2.17
2018-10-03T13:37:03.744Z,1.98
2018-10-03T13:39:31.330Z,2.22
2018-10-03T13:41:58.493Z,2.60
2018-10-03T13:44:25.658Z,2.42
2018-10-03T13:46:52.797Z,1.95
2018-10-03T13:49:19.968Z,2.50
2018-10-03T13:51:47.189Z,2.10
2018-10-03T13:54:14.361Z,2.85
2018-10-03T13:56:41.549Z,2.08
2018-10-03T13:59:08.722Z,2.40
2018-10-03T14:01:35.930Z,2.60
2018-10-03T14:04:03.081Z,2.52
2018-10-03T14:06:30.252Z,2.75
2018-10-03T14:08:57.438Z,2.75
2018-10-03T14:11:24.596Z,2.85
2018-10-03T14:13:51.756Z,2.70
2018-10-03T14:16:18.880Z,2.80
2018-10-03T14:18:46.044Z,2.92
2018-10-03T14:21:13.382Z,3.02
2018-10-03T14:23:40.796Z,2.67
2018-10-03T14:26:08.196Z,3.10
2018-10-03T14:28:35.417Z,2.52
2018-10-03T14:31:02.562Z,3.05
2018-10-03T14:33:29.717Z,2.70
2018-10-03T14:35:56.884Z,2.92
2018-10-03T14:38:24.036Z,2.60
2018-10-03T14:40:51.251Z,3.37
2018-10-03T14:43:18.430Z,2.75
2018-10-03T14:45:45.601Z,2.77
2018-10-03T14:48:12.800Z,2.80
2018-10-03T14:50:40.071Z,2.90
2018-10-03T14:53:07.250Z,3.10
2018-10-03T14:55:34.447Z,2.90
2018-10-03T14:58:03.256Z,3.20
2018-10-03T15:00:30.445Z,2.70
2018-10-03T15:02:57.632Z,2.70
2018-10-03T15:05:24.860Z,2.80
2018-10-03T15:07:52.057Z,3.02
2018-10-03T15:10:19.268Z,3.12
2018-10-03T15:12:46.439Z,2.58
2018-10-03T15:15:13.841Z,3.10
2018-10-03T15:17:41.025Z,3.45
2018-10-03T15:20:08.227Z,2.95
2018-10-03T15:22:35.457Z,2.95
2018-10-03T15:25:02.689Z,3.17
2018-10-03T15:27:29.901Z,3.27
2018-10-03T15:29:57.222Z,3.05
2018-10-03T15:32:24.279Z,2.75
2018-10-03T15:34:51.449Z,2.72
2018-10-03T15:37:18.649Z,3.17
2018-10-03T15:39:45.855Z,2.65
2018-10-03T15:42:13.127Z,2.87
2018-10-03T15:44:40.265Z,3.58
2018-10-03T15:47:07.460Z,2.95
2018-10-03T15:49:34.672Z,3.05
2018-10-03T15:52:01.882Z,3.40
2018-10-03T15:54:29.061Z,3.40
2018-10-03T15:56:56.247Z,2.40
2018-10-03T15:59:23.476Z,3.10
2018-10-03T16:01:50.649Z,3.37
2018-10-03T16:04:17.885Z,2.70
2018-10-03T16:06:45.122Z,2.87
2018-10-03T16:09:12.388Z,2.63
2018-10-03T16:11:40.495Z,2.47
2018-10-03T16:14:07.772Z,2.97
2018-10-03T16:16:35.049Z,2.90
2018-10-03T16:19:02.539Z,2.63
2018-10-03T16:21:29.817Z,2.70
2018-10-03T16:23:57.256Z,2.87
2018-10-03T16:26:24.566Z,2.83
2018-10-03T16:28:51.685Z,2.70
2018-10-03T16:31:18.881Z,3.20
2018-10-03T16:33:46.077Z,3.00
2018-10-03T16:36:13.302Z,3.07
2018-10-03T16:38:40.538Z,2.77
2018-10-03T16:41:07.804Z,3.27
2018-10-03T16:43:34.997Z,3.47
2018-10-03T16:46:02.234Z,2.90
2018-10-03T16:48:29.506Z,2.97
2018-10-03T16:50:56.748Z,3.23
2018-10-03T16:53:23.965Z,2.73
2018-10-03T16:55:51.152Z,4.03
2018-10-03T16:58:18.357Z,2.93
2018-10-03T17:00:45.656Z,2.70
2018-10-03T17:03:12.811Z,3.77
2018-10-03T17:05:39.987Z,6.07
2018-10-03T17:08:07.176Z,3.93
2018-10-03T17:10:34.409Z,3.57
2018-10-03T17:13:01.589Z,3.20
2018-10-03T17:15:28.753Z,3.20
2018-10-03T17:17:55.959Z,3.43
2018-10-03T17:20:23.137Z,3.30
2018-10-03T17:22:50.364Z,5.23
2018-10-03T17:25:17.583Z,3.77
2018-10-03T17:27:44.856Z,3.40
2018-10-03T17:30:12.285Z,3.80
2018-10-03T17:32:39.504Z,3.50
2018-10-03T17:35:06.730Z,3.40
2018-10-03T17:37:33.989Z,4.10
2018-10-03T17:40:01.209Z,3.80
2018-10-03T17:42:28.409Z,3.60
2018-10-03T17:44:55.597Z,3.73
2018-10-03T17:47:22.792Z,4.17
2018-10-03T17:49:49.956Z,4.53
2018-10-03T17:52:17.148Z,4.67
2018-10-03T17:54:44.340Z,4.50
2018-10-03T17:57:11.549Z,4.80
2018-10-03T17:59:38.738Z,5.00
2018-10-03T18:02:08.827Z,4.60
2018-10-03T18:04:36.006Z,4.67
2018-10-03T18:07:03.203Z,5.70
2018-10-03T18:09:30.644Z,4.60
2018-10-03T18:11:57.842Z,4.53
2018-10-03T18:14:25.025Z,3.80
2018-10-03T18:16:52.220Z,4.13
2018-10-03T18:19:19.440Z,4.10
2018-10-03T18:21:46.718Z,3.73
2018-10-03T18:24:13.840Z,4.33
2018-10-03T18:26:41.123Z,3.60
2018-10-03T18:29:08.352Z,4.57
2018-10-03T18:31:35.574Z,7.50
2018-10-03T18:34:02.774Z,6.10
2018-10-03T18:36:29.958Z,5.60
2018-10-03T18:38:57.172Z,9.13
2018-10-03T18:41:24.328Z,5.73
2018-10-03T18:43:51.536Z,7.07
2018-10-03T18:46:18.714Z,8.37
2018-10-03T18:48:45.903Z,8.03
2018-10-03T18:51:13.075Z,6.93
2018-10-03T18:53:40.277Z,7.87
2018-10-03T18:56:07.401Z,8.03
2018-10-03T18:58:34.654Z,8.20
2018-10-03T19:01:02.858Z,8.40
2018-10-03T19:03:30.049Z,7.70
2018-10-03T19:05:57.224Z,7.80
2018-10-03T19:08:24.421Z,7.00
2018-10-03T19:10:52.332Z,8.20
2018-10-03T19:13:19.508Z,7.83
2018-10-03T19:15:46.676Z,6.33
2018-10-03T19:18:13.892Z,5.70
2018-10-03T19:20:41.020Z,7.80
2018-10-03T19:23:08.193Z,9.07
2018-10-03T19:25:35.361Z,8.37
2018-10-03T19:28:02.522Z,18.53
2018-10-03T19:30:29.713Z,19.60
2018-10-03T19:32:56.884Z,17.03
2018-10-03T19:35:24.090Z,12.60
2018-10-03T19:37:51.273Z,13.03
2018-10-03T19:40:18.486Z,11.37
2018-10-03T19:42:45.697Z,8.13
2018-10-03T19:45:12.872Z,8.70
2018-10-03T19:47:40.037Z,9.37
2018-10-03T19:50:07.341Z,10.23
2018-10-03T19:52:34.550Z,9.43
2018-10-03T19:55:01.733Z,10.27
2018-10-03T19:57:28.967Z,10.03
2018-10-03T19:59:56.195Z,10.87
2018-10-03T20:02:23.336Z,11.30
2018-10-03T20:04:50.509Z,10.63
2018-10-03T20:07:17.717Z,11.23
2018-10-03T20:09:44.963Z,11.20
2018-10-03T20:12:12.180Z,9.17
2018-10-03T20:14:39.377Z,8.73
2018-10-03T20:17:06.532Z,7.83
2018-10-03T20:19:34.034Z,8.60
2018-10-03T20:22:01.198Z,7.83
2018-10-03T20:24:28.400Z,7.50
2018-10-03T20:26:55.589Z,7.20
2018-10-03T20:29:22.780Z,8.03
2018-10-03T20:31:49.957Z,7.37
2018-10-03T20:34:17.269Z,8.13
2018-10-03T20:36:44.394Z,8.97
2018-10-03T20:39:11.587Z,8.87
2018-10-03T20:41:38.849Z,10.33
2018-10-03T20:44:06.482Z,10.13
2018-10-03T20:46:33.656Z,8.77
2018-10-03T20:49:00.835Z,8.10
2018-10-03T20:51:28.024Z,8.17
2018-10-03T20:53:55.206Z,7.97
2018-10-03T20:56:22.363Z,7.67
2018-10-03T20:58:49.501Z,7.83
2018-10-03T21:01:16.671Z,8.73
2018-10-03T21:03:43.812Z,7.87
2018-10-03T21:06:10.974Z,8.73
2018-10-03T21:08:38.139Z,8.40
2018-10-03T21:11:05.295Z,8.90
2018-10-03T21:13:32.443Z,9.03
2018-10-03T21:15:59.569Z,9.20
2018-10-03T21:18:26.690Z,9.83
2018-10-03T21:20:53.836Z,9.43
2018-10-03T21:23:20.952Z,9.20
2018-10-03T21:25:48.152Z,10.37
2018-10-03T21:28:15.252Z,9.27
2018-10-03T21:30:42.409Z,8.33
2018-10-03T21:33:09.569Z,8.50
2018-10-03T21:35:36.762Z,7.77
2018-10-03T21:38:03.925Z,8.27
2018-10-03T21:40:31.074Z,9.20
2018-10-03T21:42:58.218Z,8.17
2018-10-03T21:45:25.778Z,8.67
2018-10-03T21:47:52.927Z,9.07
2018-10-03T21:50:20.085Z,7.63
2018-10-03T21:52:47.209Z,7.53
2018-10-03T21:55:14.364Z,7.47
2018-10-03T21:57:41.490Z,7.80
2018-10-03T22:00:09.038Z,8.90
2018-10-03T22:02:36.244Z,8.30
2018-10-03T22:05:05.549Z,8.27
2018-10-03T22:07:32.674Z,8.27
2018-10-03T22:09:59.824Z,8.10
2018-10-03T22:12:26.933Z,7.93
2018-10-03T22:14:54.107Z,8.40
2018-10-03T22:17:22.224Z,8.37
2018-10-03T22:19:49.382Z,8.03
2018-10-03T22:22:16.553Z,7.53
2018-10-03T22:24:43.711Z,7.63
2018-10-03T22:27:10.853Z,8.70
2018-10-03T22:29:38.324Z,8.63
2018-10-03T22:32:05.920Z,8.47
2018-10-03T22:34:33.032Z,7.93
2018-10-03T22:37:00.187Z,8.37
2018-10-03T22:39:27.339Z,8.93
2018-10-03T22:41:54.529Z,8.37
2018-10-03T22:44:21.686Z,8.50
2018-10-03T22:46:48.845Z,8.60
2018-10-03T22:49:15.984Z,8.23
2018-10-03T22:51:43.265Z,8.00
2018-10-03T22:54:10.408Z,9.90
2018-10-03T22:56:37.529Z,8.90
2018-10-03T22:59:05.377Z,8.83
2018-10-03T23:01:32.525Z,8.63
2018-10-03T23:03:59.677Z,8.47
2018-10-03T23:06:26.788Z,8.30
2018-10-03T23:08:53.962Z,8.40
2018-10-03T23:11:21.093Z,8.60
2018-10-03T23:13:48.323Z,8.27
2018-10-03T23:16:15.461Z,8.53
2018-10-03T23:18:42.578Z,8.67
2018-10-03T23:21:09.736Z,8.87
2018-10-03T23:23:36.876Z,8.37
2018-10-03T23:26:04.035Z,8.77
2018-10-03T23:28:31.162Z,9.03
2018-10-03T23:30:58.381Z,8.83
2018-10-03T23:33:25.536Z,8.17
2018-10-03T23:35:52.670Z,8.97
2018-10-03T23:38:19.816Z,8.53
2018-10-03T23:40:46.937Z,8.23
2018-10-03T23:43:14.497Z,7.80
2018-10-03T23:45:41.640Z,8.37
2018-10-03T23:48:08.760Z,7.93
2018-10-03T23:50:35.914Z,9.17
2018-10-03T23:53:03.076Z,8.10
2018-10-03T23:55:30.211Z,8.43
2018-10-03T23:57:57.369Z,9.03
